Time;durP1;ratioP1;P1;durP2;ratioP2;P2;SDS_P1;SDS_P2;PMS_P1;PMS_P2;Temp;Humidity;BMP_temperature;BMP_pressure;BME280_temperature;BME280_humidity;BME280_pressure;Samples;Min_cycle;Max_cycle;Signal;HPM_P1;HPM_P2
2022/07/28 00:02:01;;;;;;;4.60;1.92;;;14.40;99.90;;;;;;4983156;28;20046;-77
2022/07/28 00:04:27;;;;;;;4.28;1.77;;;14.40;99.90;;;;;;4998469;28;20635;-77
2022/07/28 00:06:52;;;;;;;3.00;1.75;;;14.30;99.90;;;;;;4994053;28;20057;-78
2022/07/28 00:09:18;;;;;;;6.03;1.83;;;14.30;99.90;;;;;;4971135;28;20049;-78
2022/07/28 00:11:44;;;;;;;3.10;1.60;;;14.30;99.90;;;;;;4965940;28;20045;-78
2022/07/28 00:14:10;;;;;;;2.45;1.50;;;14.30;99.90;;;;;;4981132;28;20045;-77
2022/07/28 00:16:36;;;;;;;4.95;2.00;;;14.30;99.90;;;;;;4964882;28;20405;-78
2022/07/28 00:19:01;;;;;;;4.38;1.92;;;14.30;99.90;;;;;;4962462;28;20057;-77
2022/07/28 00:21:27;;;;;;;4.28;1.90;;;14.20;99.90;;;;;;4966470;28;20494;-77
2022/07/28 00:23:53;;;;;;;2.47;1.85;;;14.10;99.90;;;;;;4973580;28;20549;-78
2022/07/28 00:26:18;;;;;;;3.22;1.85;;;14.10;99.90;;;;;;5001228;28;20049;-78
2022/07/28 00:28:44;;;;;;;4.00;1.83;;;14.10;99.90;;;;;;4991147;28;20605;-78
2022/07/28 00:31:10;;;;;;;3.55;1.88;;;14.10;99.90;;;;;;4990855;28;20490;-77
2022/07/28 00:33:36;;;;;;;3.90;1.77;;;14.00;99.90;;;;;;4984475;28;20073;-77
2022/07/28 00:36:03;;;;;;;2.75;1.88;;;14.00;99.90;;;;;;4990510;28;20038;-77
2022/07/28 00:38:29;;;;;;;4.05;2.22;;;14.00;99.90;;;;;;4973652;28;20581;-77
2022/07/28 00:41:09;;;;;;;2.67;1.75;;;14.00;99.90;;;;;;5020383;28;20081;-77
2022/07/28 00:43:36;;;;;;;4.28;1.88;;;14.00;99.90;;;;;;5000267;28;20046;-78
2022/07/28 00:46:02;;;;;;;3.50;1.70;;;13.90;99.90;;;;;;4988625;28;20313;-78
2022/07/28 00:48:28;;;;;;;3.95;1.73;;;13.90;99.90;;;;;;4985373;28;20546;-78
2022/07/28 00:50:54;;;;;;;4.05;1.60;;;13.80;99.90;;;;;;5002215;28;20052;-77
2022/07/28 00:53:21;;;;;;;5.30;1.90;;;13.80;99.90;;;;;;5002611;28;20045;-78
2022/07/28 00:55:47;;;;;;;4.05;1.90;;;13.70;99.90;;;;;;4972572;28;20064;-78
2022/07/28 00:58:13;;;;;;;3.80;1.80;;;13.70;99.90;;;;;;4986216;28;20050;-77
2022/07/28 01:00:39;;;;;;;4.28;2.00;;;13.60;99.90;;;;;;4985412;28;20045;-77
2022/07/28 01:03:06;;;;;;;3.20;1.80;;;13.60;99.90;;;;;;4991685;28;22595;-76
2022/07/28 01:05:48;;;;;;;4.22;1.80;;;13.60;99.90;;;;;;5020395;28;20037;-77
2022/07/28 01:08:43;;;;;;;3.05;2.13;;;13.60;99.90;;;;;;5002986;28;20126;-77
2022/07/28 01:11:33;;;;;;;4.28;2.10;;;13.60;99.90;;;;;;5000874;28;20091;-77
2022/07/28 01:14:07;;;;;;;4.60;2.13;;;13.60;99.90;;;;;;5000478;28;20041;-77
2022/07/28 01:16:42;;;;;;;5.10;2.10;;;13.50;99.90;;;;;;5018351;28;20054;-77
2022/07/28 01:19:24;;;;;;;4.18;2.38;;;13.60;99.90;;;;;;4997928;28;20060;-77
2022/07/28 01:21:52;;;;;;;3.17;2.00;;;13.50;99.90;;;;;;4986370;28;20037;-76
2022/07/28 01:24:32;;;;;;;3.75;2.20;;;13.50;99.90;;;;;;5005623;28;20219;-77
2022/07/28 01:27:09;;;;;;;3.10;2.03;;;13.50;99.90;;;;;;5001573;28;20060;-76
2022/07/28 01:30:04;;;;;;;2.80;1.77;;;13.50;99.90;;;;;;4999283;28;20045;-76
2022/07/28 01:32:44;;;;;;;3.88;1.92;;;13.40;99.90;;;;;;4989946;28;20053;-77
2022/07/28 01:35:18;;;;;;;3.78;2.15;;;13.40;99.90;;;;;;4989062;28;20080;-76
2022/07/28 01:37:48;;;;;;;3.92;1.98;;;13.40;99.90;;;;;;4987077;28;20053;-76
2022/07/28 01:40:18;;;;;;;4.30;2.20;;;13.30;99.90;;;;;;4984080;28;20498;-76
2022/07/28 01:42:47;;;;;;;3.60;2.20;;;13.30;99.90;;;;;;4987479;28;20575;-76
2022/07/28 01:45:14;;;;;;;3.38;2.00;;;13.30;99.90;;;;;;4998607;28;20057;-76
2022/07/28 01:47:44;;;;;;;3.50;2.25;;;13.30;99.90;;;;;;5000354;28;20045;-76
2022/07/28 01:50:13;;;;;;;4.28;2.42;;;13.30;99.90;;;;;;4991360;28;20045;-76
2022/07/28 01:52:41;;;;;;;5.38;2.40;;;13.30;99.90;;;;;;5001546;28;20053;-77
2022/07/28 01:55:08;;;;;;;3.22;2.03;;;13.20;99.90;;;;;;4983150;28;20053;-77
2022/07/28 01:57:35;;;;;;;5.40;2.50;;;13.20;99.90;;;;;;5000688;28;20170;-77
2022/07/28 02:00:04;;;;;;;4.85;2.40;;;13.10;99.90;;;;;;5014572;28;20707;-77
2022/07/28 02:02:31;;;;;;;4.38;2.08;;;13.10;99.90;;;;;;4999100;28;20046;-77
2022/07/28 02:04:59;;;;;;;3.35;2.22;;;13.10;99.90;;;;;;4990094;28;20045;-77
2022/07/28 02:07:27;;;;;;;4.28;2.25;;;13.10;99.90;;;;;;4998949;28;20050;-77
2022/07/28 02:09:55;;;;;;;5.30;1.95;;;13.10;99.90;;;;;;4985165;28;20049;-77
2022/07/28 02:12:23;;;;;;;2.70;1.75;;;13.10;99.90;;;;;;4983933;28;20137;-76
2022/07/28 02:14:50;;;;;;;2.85;1.90;;;13.20;99.90;;;;;;4984498;28;20169;-77
2022/07/28 02:17:28;;;;;;;3.83;1.92;;;13.10;99.90;;;;;;4996718;28;20084;-77
2022/07/28 02:19:56;;;;;;;4.45;2.35;;;13.10;99.90;;;;;;4990287;28;20124;-75
2022/07/28 02:22:22;;;;;;;4.00;2.33;;;13.10;99.90;;;;;;4998163;28;20057;-76
2022/07/28 02:24:48;;;;;;;2.85;1.92;;;13.00;99.90;;;;;;4984452;28;20115;-76
2022/07/28 02:27:43;;;;;;;4.03;2.20;;;13.00;99.90;;;;;;4969658;28;20084;-77
2022/07/28 02:30:14;;;;;;;3.75;2.10;;;13.00;99.90;;;;;;4972605;28;20507;-76
2022/07/28 02:32:54;;;;;;;4.40;2.47;;;12.90;99.90;;;;;;4998477;28;20516;-77
2022/07/28 02:35:35;;;;;;;3.72;2.42;;;12.90;99.90;;;;;;4989849;28;20129;-77
2022/07/28 02:38:09;;;;;;;3.15;2.25;;;12.90;99.90;;;;;;5013369;28;20054;-78
2022/07/28 02:40:37;;;;;;;4.68;2.42;;;13.00;99.90;;;;;;4999731;28;20497;-77
2022/07/28 02:43:06;;;;;;;4.15;2.60;;;12.90;99.90;;;;;;5016848;28;20236;-78
2022/07/28 02:45:34;;;;;;;3.60;2.50;;;12.90;99.90;;;;;;5000093;28;20042;-78
2022/07/28 02:48:04;;;;;;;4.97;2.45;;;12.90;99.90;;;;;;5013961;28;20049;-77
2022/07/28 02:50:30;;;;;;;7.13;2.88;;;12.90;99.90;;;;;;4998846;28;20054;-78
2022/07/28 02:53:00;;;;;;;7.20;2.53;;;12.90;99.90;;;;;;4982535;28;20048;-78
2022/07/28 02:55:27;;;;;;;4.53;2.50;;;12.90;99.90;;;;;;4986754;28;20084;-77
2022/07/28 02:57:54;;;;;;;3.45;2.45;;;12.90;99.90;;;;;;4973581;28;20045;-80
2022/07/28 03:00:21;;;;;;;4.65;2.90;;;12.90;99.90;;;;;;5000687;28;20585;-78
2022/07/28 03:02:47;;;;;;;4.68;3.00;;;12.80;99.90;;;;;;4999779;28;20056;-77
2022/07/28 03:05:14;;;;;;;5.43;2.65;;;12.80;99.90;;;;;;4966327;28;20049;-79
2022/07/28 03:07:40;;;;;;;5.03;2.80;;;12.80;99.90;;;;;;5016166;28;20042;-78
2022/07/28 03:10:08;;;;;;;5.05;2.97;;;12.80;99.90;;;;;;4999233;28;20049;-78
2022/07/28 03:12:34;;;;;;;4.47;2.90;;;12.80;99.90;;;;;;5002863;28;20053;-79
2022/07/28 03:14:59;;;;;;;6.13;2.83;;;12.70;99.90;;;;;;5001966;28;20053;-78
2022/07/28 03:17:26;;;;;;;4.28;2.50;;;12.70;99.90;;;;;;4983250;28;20060;-79
2022/07/28 03:19:51;;;;;;;6.35;2.55;;;12.70;99.90;;;;;;4989252;28;20470;-79
2022/07/28 03:22:17;;;;;;;6.22;2.90;;;12.70;99.90;;;;;;4967609;28;20046;-78
2022/07/28 03:24:50;;;;;;;6.95;3.30;;;12.70;99.90;;;;;;4990761;28;20037;-78
2022/07/28 03:27:21;;;;;;;4.47;3.05;;;12.70;99.90;;;;;;4995732;28;20537;-78
2022/07/28 03:29:53;;;;;;;4.35;2.85;;;12.70;99.90;;;;;;5006797;28;20041;-76
2022/07/28 03:32:21;;;;;;;4.53;2.90;;;12.70;99.90;;;;;;4999549;28;20834;-81
2022/07/28 03:34:48;;;;;;;4.43;2.70;;;12.70;99.90;;;;;;4994767;28;20041;-80
2022/07/28 03:37:17;;;;;;;3.92;2.78;;;12.60;99.90;;;;;;4997404;28;20062;-78
2022/07/28 03:39:47;;;;;;;6.18;2.70;;;12.60;99.90;;;;;;4995100;28;20045;-78
2022/07/28 03:42:17;;;;;;;5.50;3.17;;;12.60;99.90;;;;;;5009048;28;20041;-79
2022/07/28 03:44:45;;;;;;;4.75;2.80;;;12.60;99.90;;;;;;4982865;28;20053;-79
2022/07/28 03:47:11;;;;;;;3.35;2.40;;;12.60;99.90;;;;;;4998313;28;20041;-79
2022/07/28 03:49:37;;;;;;;4.30;2.90;;;12.60;99.90;;;;;;4984261;28;20391;-79
2022/07/28 03:52:03;;;;;;;4.60;2.72;;;12.60;99.90;;;;;;4998584;28;20064;-80
2022/07/28 03:54:29;;;;;;;5.32;2.80;;;12.60;99.90;;;;;;4980844;28;20069;-80
2022/07/28 03:56:55;;;;;;;4.85;3.20;;;12.60;99.90;;;;;;4980802;28;20081;-79
2022/07/28 03:59:20;;;;;;;4.38;2.67;;;12.50;99.90;;;;;;4972476;28;20045;-79
2022/07/28 04:01:46;;;;;;;3.00;2.40;;;12.50;99.90;;;;;;4999949;28;20041;-80
2022/07/28 04:04:12;;;;;;;4.38;2.53;;;12.50;99.90;;;;;;4981884;28;20096;-79
2022/07/28 04:06:38;;;;;;;4.10;2.65;;;12.50;99.90;;;;;;4974642;28;20064;-80
2022/07/28 04:09:04;;;;;;;5.63;2.53;;;12.50;99.90;;;;;;4958097;28;20128;-80
2022/07/28 04:11:29;;;;;;;4.05;2.85;;;12.40;99.90;;;;;;4983741;28;20053;-78
2022/07/28 04:13:55;;;;;;;3.58;2.40;;;12.40;99.90;;;;;;4984630;28;20049;-78
2022/07/28 04:16:21;;;;;;;5.50;2.70;;;12.40;99.90;;;;;;4973674;28;20146;-78
2022/07/28 04:18:47;;;;;;;5.13;2.88;;;12.40;99.90;;;;;;4999673;28;20041;-80
2022/07/28 04:21:13;;;;;;;3.40;2.20;;;12.40;99.90;;;;;;4969950;28;20553;-79
2022/07/28 04:23:39;;;;;;;9.18;3.83;;;12.40;99.90;;;;;;4988315;28;20045;-78
2022/07/28 04:26:04;;;;;;;4.47;2.72;;;12.40;99.90;;;;;;4956564;28;20056;-77
2022/07/28 04:28:30;;;;;;;6.72;2.75;;;12.40;99.90;;;;;;4985825;28;20049;-77
2022/07/28 04:30:56;;;;;;;4.00;2.45;;;12.50;99.90;;;;;;4981474;28;20077;-77
2022/07/28 04:33:22;;;;;;;3.25;2.30;;;12.50;99.90;;;;;;4966370;28;20046;-77
2022/07/28 04:35:47;;;;;;;4.07;2.40;;;12.50;99.90;;;;;;4982145;28;20390;-78
2022/07/28 04:38:16;;;;;;;4.38;2.65;;;12.50;99.90;;;;;;4981710;28;20053;-78
2022/07/28 04:40:41;;;;;;;3.90;2.30;;;12.50;99.90;;;;;;4998655;28;20403;-78
2022/07/28 04:43:09;;;;;;;5.22;2.78;;;12.60;99.90;;;;;;4988261;28;20054;-78
2022/07/28 04:45:35;;;;;;;6.32;2.90;;;12.60;99.90;;;;;;4996742;28;20382;-78
2022/07/28 04:48:01;;;;;;;3.95;2.60;;;12.70;99.90;;;;;;4997528;28;20664;-79
2022/07/28 04:50:27;;;;;;;5.75;2.70;;;12.70;99.90;;;;;;5016551;28;20052;-76
2022/07/28 04:52:53;;;;;;;5.50;2.40;;;12.70;99.90;;;;;;4970802;28;20048;-78
2022/07/28 04:55:19;;;;;;;5.90;2.72;;;12.70;99.90;;;;;;4972518;28;20056;-78
2022/07/28 04:57:44;;;;;;;6.20;2.83;;;12.80;99.90;;;;;;4981809;28;20045;-78
2022/07/28 05:00:12;;;;;;;5.72;2.47;;;12.90;99.90;;;;;;4998825;28;20099;-78
2022/07/28 05:02:42;;;;;;;5.32;2.60;;;12.90;99.90;;;;;;4982287;28;20100;-78
2022/07/28 05:05:08;;;;;;;3.67;1.95;;;13.00;99.90;;;;;;5002107;28;20060;-78
2022/07/28 05:07:35;;;;;;;3.60;2.10;;;13.10;99.90;;;;;;4997010;28;20143;-77
2022/07/28 05:10:01;;;;;;;5.10;2.35;;;13.20;99.90;;;;;;4997049;28;20050;-78
2022/07/28 05:12:27;;;;;;;4.65;2.25;;;13.20;99.90;;;;;;5018709;28;20116;-77
2022/07/28 05:14:53;;;;;;;3.50;1.95;;;13.30;99.90;;;;;;4975151;28;20076;-77
2022/07/28 05:17:18;;;;;;;4.15;1.90;;;13.40;99.90;;;;;;4986624;28;20059;-78
2022/07/28 05:19:44;;;;;;;4.85;2.03;;;13.50;99.90;;;;;;4975523;28;20064;-78
2022/07/28 05:22:10;;;;;;;5.68;2.40;;;13.50;99.90;;;;;;4970014;28;20049;-77
2022/07/28 05:24:36;;;;;;;3.67;2.00;;;13.60;99.90;;;;;;4982593;28;20506;-78
2022/07/28 05:27:01;;;;;;;3.47;2.08;;;13.70;99.90;;;;;;4993005;28;20478;-80
2022/07/28 05:29:27;;;;;;;5.15;2.33;;;13.70;99.90;;;;;;4993240;28;20061;-78
2022/07/28 05:31:53;;;;;;;5.15;2.17;;;13.80;99.90;;;;;;4970773;28;20376;-80
2022/07/28 05:34:19;;;;;;;2.70;2.05;;;13.90;99.90;;;;;;5006402;28;20045;-79
2022/07/28 05:36:44;;;;;;;4.68;2.20;;;13.90;99.90;;;;;;4988910;28;20049;-79
2022/07/28 05:39:10;;;;;;;3.50;1.77;;;14.00;99.90;;;;;;4976197;28;20065;-81
2022/07/28 05:41:36;;;;;;;3.13;1.75;;;14.10;99.90;;;;;;4974984;28;20107;-80
2022/07/28 05:44:01;;;;;;;4.63;2.05;;;14.20;99.90;;;;;;4971488;28;20073;-79
2022/07/28 05:46:27;;;;;;;4.18;1.83;;;14.20;99.90;;;;;;4982436;28;20034;-80
2022/07/28 05:48:53;;;;;;;3.08;1.77;;;14.30;99.90;;;;;;4973368;28;20041;-79
2022/07/28 05:51:19;;;;;;;2.55;1.65;;;14.50;99.90;;;;;;4975487;28;20054;-78
2022/07/28 05:53:44;;;;;;;2.83;1.40;;;14.60;99.90;;;;;;4983170;28;20052;-79
2022/07/28 05:56:10;;;;;;;5.25;1.85;;;14.70;99.90;;;;;;4999077;28;20041;-80
2022/07/28 05:58:36;;;;;;;3.28;1.70;;;14.80;99.90;;;;;;4972778;28;20419;-79
2022/07/28 06:01:02;;;;;;;3.67;1.65;;;15.00;99.90;;;;;;4991810;28;20156;-82
2022/07/28 06:03:30;;;;;;;3.67;2.00;;;15.00;99.90;;;;;;4966075;28;20526;-80
2022/07/28 06:05:57;;;;;;;2.47;1.48;;;15.20;99.90;;;;;;4999810;28;20322;-78
2022/07/28 06:08:25;;;;;;;2.88;1.40;;;15.30;99.90;;;;;;4984262;28;20041;-80
2022/07/28 06:10:57;;;;;;;5.07;2.00;;;15.40;99.90;;;;;;4975137;28;20486;-81
2022/07/28 06:13:23;;;;;;;4.10;1.33;;;15.50;99.90;;;;;;4984555;28;20041;-80
2022/07/28 06:15:51;;;;;;;4.45;1.92;;;15.80;99.90;;;;;;5004868;28;20045;-81
2022/07/28 06:18:17;;;;;;;4.95;1.70;;;15.90;99.90;;;;;;4966741;28;20103;-78
2022/07/28 06:20:45;;;;;;;4.63;1.90;;;15.90;99.90;;;;;;4998725;28;20045;-77
2022/07/28 06:23:11;;;;;;;2.75;1.50;;;16.20;99.90;;;;;;4988536;28;20384;-78
2022/07/28 06:25:37;;;;;;;2.15;1.42;;;16.30;99.90;;;;;;4988154;28;20056;-76
2022/07/28 06:28:03;;;;;;;2.47;1.38;;;16.40;99.90;;;;;;4976303;28;20046;-78
2022/07/28 06:30:30;;;;;;;2.28;1.17;;;16.40;99.90;;;;;;4974413;28;20099;-79
2022/07/28 06:32:56;;;;;;;2.03;1.30;;;16.50;99.90;;;;;;4996135;28;20049;-78
2022/07/28 06:35:22;;;;;;;3.88;1.63;;;16.60;99.90;;;;;;4997408;28;20046;-79
2022/07/28 06:37:49;;;;;;;2.88;1.15;;;16.80;99.90;;;;;;5000283;28;20061;-78
2022/07/28 06:40:17;;;;;;;3.58;1.30;;;16.90;99.90;;;;;;5000996;28;20045;-82
2022/07/28 06:42:43;;;;;;;5.00;1.58;;;17.00;99.90;;;;;;4986401;28;20042;-83
2022/07/28 06:45:10;;;;;;;2.97;1.30;;;17.10;99.90;;;;;;4986057;28;20514;-81
2022/07/28 06:47:36;;;;;;;4.93;1.15;;;17.20;99.90;;;;;;4987104;28;20045;-81
2022/07/28 06:50:06;;;;;;;1.95;1.00;;;17.30;99.90;;;;;;4991404;28;20125;-81
2022/07/28 06:52:33;;;;;;;3.25;1.08;;;17.40;99.90;;;;;;4985706;28;20038;-80
2022/07/28 06:54:59;;;;;;;3.97;1.15;;;17.40;99.90;;;;;;4991552;28;20049;-81
2022/07/28 06:57:26;;;;;;;2.78;1.00;;;17.50;99.90;;;;;;4976098;28;20038;-80
2022/07/28 06:59:52;;;;;;;3.13;0.95;;;17.50;99.90;;;;;;4971014;28;20079;-79
2022/07/28 07:02:18;;;;;;;2.40;0.95;;;17.50;99.90;;;;;;4974713;28;20462;-81
2022/07/28 07:04:46;;;;;;;1.90;0.77;;;17.40;99.90;;;;;;4990438;28;20041;-80
2022/07/28 07:07:12;;;;;;;1.98;0.90;;;17.40;99.90;;;;;;4973987;28;20154;-80
2022/07/28 07:09:38;;;;;;;2.30;1.10;;;17.50;99.90;;;;;;4981969;28;20045;-85
2022/07/28 07:12:05;;;;;;;3.63;1.08;;;17.50;99.90;;;;;;5005947;28;20045;-81
2022/07/28 07:14:30;;;;;;;3.67;0.95;;;17.50;99.90;;;;;;4975615;28;20140;-82
2022/07/28 07:16:56;;;;;;;2.08;0.90;;;17.60;99.90;;;;;;4997708;28;20447;-84
2022/07/28 07:19:22;;;;;;;3.30;1.10;;;17.70;99.90;;;;;;4976820;28;20056;-84
2022/07/28 07:21:48;;;;;;;2.47;1.20;;;17.70;99.90;;;;;;4977614;28;20502;-79
2022/07/28 07:24:13;;;;;;;3.47;0.93;;;17.70;99.90;;;;;;4986822;28;20081;-80
2022/07/28 07:26:40;;;;;;;1.42;0.75;;;17.80;99.90;;;;;;4993545;28;20065;-78
2022/07/28 07:29:06;;;;;;;1.92;0.98;;;17.90;99.90;;;;;;4987745;28;20049;-78
2022/07/28 07:31:33;;;;;;;2.65;1.02;;;17.90;99.90;;;;;;4987797;28;20125;-79
2022/07/28 07:33:59;;;;;;;2.22;1.05;;;18.00;99.90;;;;;;4994397;28;20124;-79
2022/07/28 07:36:24;;;;;;;3.90;1.08;;;18.00;99.90;;;;;;4999695;28;20128;-78
2022/07/28 07:38:50;;;;;;;2.60;0.95;;;18.10;99.90;;;;;;4993378;28;20116;-79
2022/07/28 07:41:17;;;;;;;2.70;1.20;;;18.10;99.90;;;;;;4992343;28;20513;-78
2022/07/28 07:43:45;;;;;;;2.75;0.90;;;18.20;99.90;;;;;;4977297;28;20131;-79
2022/07/28 07:46:11;;;;;;;2.53;1.00;;;18.20;99.90;;;;;;4994157;28;20455;-79
2022/07/28 07:48:37;;;;;;;2.78;0.80;;;18.30;99.90;;;;;;4984691;28;20050;-77
2022/07/28 07:51:03;;;;;;;1.38;0.75;;;18.40;99.90;;;;;;4976555;28;20049;-78
2022/07/28 07:53:29;;;;;;;2.17;0.90;;;18.40;99.90;;;;;;5001371;28;20053;-79
2022/07/28 07:55:55;;;;;;;1.67;0.90;;;18.50;99.90;;;;;;4978276;28;20053;-78
2022/07/28 07:58:21;;;;;;;2.03;0.90;;;18.60;99.90;;;;;;4987023;28;20132;-79
2022/07/28 08:00:47;;;;;;;2.70;1.00;;;18.60;99.90;;;;;;5001841;28;20041;-78
2022/07/28 08:03:14;;;;;;;2.90;0.93;;;18.60;99.90;;;;;;4976641;28;20371;-79
2022/07/28 08:05:40;;;;;;;4.47;1.00;;;18.70;99.90;;;;;;4994103;28;20053;-79
2022/07/28 08:08:06;;;;;;;2.55;0.90;;;18.70;99.90;;;;;;4973038;28;20403;-79
2022/07/28 08:10:33;;;;;;;2.38;1.00;;;18.70;99.90;;;;;;4993210;28;20093;-78
2022/07/28 08:12:59;;;;;;;2.13;0.90;;;18.80;99.90;;;;;;4999785;28;20060;-79
2022/07/28 08:15:25;;;;;;;1.85;0.88;;;18.80;99.90;;;;;;4992422;28;20415;-80
2022/07/28 08:17:56;;;;;;;1.70;0.82;;;18.90;99.90;;;;;;4969379;28;20049;-81
2022/07/28 08:20:22;;;;;;;2.33;0.95;;;19.00;99.90;;;;;;4984563;28;20578;-80
2022/07/28 08:22:54;;;;;;;3.22;0.80;;;19.10;99.90;;;;;;4992058;28;20052;-81
2022/07/28 08:25:21;;;;;;;2.28;0.80;;;19.20;99.90;;;;;;4999524;28;20410;-79
2022/07/28 08:27:47;;;;;;;1.15;0.65;;;19.20;99.90;;;;;;4961301;28;20046;-78
2022/07/28 08:30:14;;;;;;;2.67;0.80;;;19.30;99.90;;;;;;5000652;28;20041;-79
2022/07/28 08:32:41;;;;;;;2.47;0.77;;;19.30;99.90;;;;;;4991890;28;20621;-80
2022/07/28 08:35:07;;;;;;;1.35;0.73;;;19.30;99.90;;;;;;5002166;28;20058;-79
2022/07/28 08:37:33;;;;;;;1.58;0.75;;;19.40;99.90;;;;;;5002032;28;20135;-80
2022/07/28 08:39:59;;;;;;;1.20;0.60;;;19.50;99.90;;;;;;4991735;28;20483;-79
2022/07/28 08:42:51;;;;;;;4.45;0.75;;;19.60;99.90;;;;;;4987756;28;20045;-81
2022/07/28 08:45:19;;;;;;;2.10;0.70;;;19.70;99.90;;;;;;4990950;28;20064;-78
2022/07/28 08:47:48;;;;;;;2.40;0.70;;;19.80;99.90;;;;;;5001538;28;20105;-81
2022/07/28 08:50:15;;;;;;;3.40;0.80;;;19.90;99.90;;;;;;4999449;28;20056;-81
2022/07/28 08:52:44;;;;;;;2.67;0.82;;;20.00;99.90;;;;;;5008056;28;20042;-81
2022/07/28 08:55:12;;;;;;;1.00;0.70;;;20.10;99.90;;;;;;5014825;28;20128;-80
2022/07/28 08:57:40;;;;;;;2.92;0.80;;;20.20;99.90;;;;;;4996577;28;20046;-80
2022/07/28 09:00:10;;;;;;;1.50;0.70;;;20.30;99.90;;;;;;5008041;28;20045;-81
2022/07/28 09:02:40;;;;;;;2.65;0.70;;;20.40;99.90;;;;;;4978698;28;20053;-80
2022/07/28 09:05:06;;;;;;;1.63;0.80;;;20.60;99.90;;;;;;5005230;28;20068;-80
2022/07/28 09:07:36;;;;;;;2.92;0.98;;;20.70;99.90;;;;;;5019086;28;20046;-81
2022/07/28 09:10:07;;;;;;;2.67;0.80;;;20.80;99.90;;;;;;4996605;28;20053;-81
2022/07/28 09:12:34;;;;;;;1.95;0.70;;;20.90;99.90;;;;;;4994508;28;20041;-81
2022/07/28 09:15:05;;;;;;;1.95;0.82;;;21.00;99.90;;;;;;4986948;28;20138;-81
2022/07/28 09:17:32;;;;;;;4.35;0.88;;;21.10;99.90;;;;;;5001524;28;20084;-80
2022/07/28 09:19:58;;;;;;;1.83;0.77;;;21.30;99.90;;;;;;5003659;28;21285;-80
2022/07/28 09:22:24;;;;;;;1.55;0.55;;;21.40;99.90;;;;;;4987443;28;20049;-82
2022/07/28 09:24:50;;;;;;;2.70;0.85;;;21.50;99.90;;;;;;4977440;28;20046;-81
2022/07/28 09:27:15;;;;;;;2.47;0.70;;;21.70;99.90;;;;;;4994964;28;20049;-81
2022/07/28 09:29:46;;;;;;;3.00;0.60;;;21.80;99.90;;;;;;4986651;28;20050;-82
2022/07/28 09:32:18;;;;;;;3.13;0.80;;;22.00;99.90;;;;;;4996042;28;20045;-82
2022/07/28 09:34:49;;;;;;;2.05;0.70;;;22.30;99.90;;;;;;5003775;28;20124;-81
2022/07/28 09:37:19;;;;;;;2.30;0.70;;;22.50;99.70;;;;;;4989731;28;20112;-82
2022/07/28 09:39:46;;;;;;;4.22;0.80;;;22.80;99.30;;;;;;5004942;28;20499;-85
2022/07/28 09:42:13;;;;;;;3.13;0.80;;;23.10;99.10;;;;;;4989539;28;20479;-83
2022/07/28 09:44:39;;;;;;;1.00;0.50;;;23.20;98.80;;;;;;4985570;28;20045;-83
2022/07/28 09:47:26;;;;;;;4.05;1.10;;;23.10;98.60;;;;;;4988523;28;20623;-82
2022/07/28 09:49:53;;;;;;;1.75;0.85;;;23.00;97.90;;;;;;4996823;28;20049;-83
2022/07/28 09:52:33;;;;;;;2.28;0.70;;;22.90;98.60;;;;;;5002729;28;20057;-89
2022/07/28 09:55:00;;;;;;;2.28;0.70;;;23.00;98.60;;;;;;4990544;28;20064;-85
2022/07/28 09:57:28;;;;;;;1.20;0.70;;;22.40;99.10;;;;;;5016881;28;20049;-84
2022/07/28 09:59:55;;;;;;;3.53;1.10;;;22.20;99.20;;;;;;5001763;28;20049;-83
2022/07/28 10:02:25;;;;;;;1.63;0.70;;;22.00;99.30;;;;;;4990533;28;20048;-84
2022/07/28 10:04:52;;;;;;;1.38;0.77;;;21.60;99.20;;;;;;4985981;28;20132;-83
2022/07/28 10:07:21;;;;;;;0.95;0.60;;;21.50;99.40;;;;;;5001628;28;20049;-83
2022/07/28 10:10:02;;;;;;;1.45;0.80;;;21.30;99.50;;;;;;4990262;28;20542;-82
2022/07/28 10:12:30;;;;;;;2.15;0.70;;;21.20;98.90;;;;;;4986601;28;20077;-82
2022/07/28 10:14:59;;;;;;;2.10;0.80;;;21.10;99.50;;;;;;4991268;28;20045;-83
2022/07/28 10:17:32;;;;;;;1.48;0.50;;;21.10;99.60;;;;;;4975188;28;20034;-82
2022/07/28 10:20:05;;;;;;;2.22;0.70;;;21.10;99.40;;;;;;4990729;28;20045;-83
2022/07/28 10:22:36;;;;;;;1.63;1.00;;;21.20;99.20;;;;;;5002115;28;20056;-84
2022/07/28 10:25:11;;;;;;;2.05;0.70;;;21.20;99.10;;;;;;5003412;28;20057;-83
2022/07/28 10:27:42;;;;;;;1.48;0.60;;;21.30;98.70;;;;;;4988133;28;20079;-82
2022/07/28 10:30:08;;;;;;;3.17;0.80;;;21.40;99.10;;;;;;5001672;28;20140;-82
2022/07/28 10:32:44;;;;;;;4.50;0.75;;;21.50;99.10;;;;;;4985576;28;20048;-82
2022/07/28 10:35:16;;;;;;;1.85;0.68;;;21.70;98.80;;;;;;4988126;28;20056;-82
2022/07/28 10:38:06;;;;;;;1.90;0.82;;;21.80;98.90;;;;;;4967528;28;20054;-82
2022/07/28 10:40:43;;;;;;;1.25;0.65;;;21.90;98.70;;;;;;4989967;28;20049;-84
2022/07/28 10:43:11;;;;;;;1.30;0.80;;;22.00;98.80;;;;;;4986776;28;20119;-82
2022/07/28 10:45:38;;;;;;;1.30;0.70;;;22.20;98.70;;;;;;5005558;28;20550;-84
2022/07/28 10:48:07;;;;;;;3.03;0.70;;;22.30;98.20;;;;;;4983703;28;20060;-85
2022/07/28 10:50:38;;;;;;;2.25;0.80;;;22.30;97.90;;;;;;4986801;28;20052;-85
2022/07/28 10:53:06;;;;;;;1.13;0.70;;;22.50;97.90;;;;;;4989861;28;20116;-85
2022/07/28 10:55:32;;;;;;;1.38;0.70;;;22.80;97.60;;;;;;5004294;28;20061;-84
2022/07/28 10:58:35;;;;;;;2.85;0.75;;;23.30;97.50;;;;;;5002211;28;20084;-85
2022/07/28 11:01:01;;;;;;;1.90;0.77;;;24.00;96.90;;;;;;5002623;28;20747;-85
2022/07/28 11:03:35;;;;;;;2.92;0.80;;;24.40;95.40;;;;;;4978317;28;20434;-87
2022/07/28 11:06:32;;;;;;;1.70;0.80;;;24.80;95.30;;;;;;4988040;28;20132;-86
2022/07/28 11:08:59;;;;;;;;;;;25.20;93.20;;;;;;4988980;28;20559;-84
2022/07/28 11:11:57;;;;;;;1.75;0.50;;;25.40;92.30;;;;;;4990807;28;19925;-84
2022/07/28 11:14:23;;;;;;;1.17;0.70;;;25.70;91.20;;;;;;4963223;28;20137;-79
2022/07/28 11:17:12;;;;;;;2.85;0.80;;;26.10;91.70;;;;;;4993275;28;20198;-82
2022/07/28 11:19:44;;;;;;;2.20;0.70;;;26.20;88.50;;;;;;4994150;28;20076;-80
2022/07/28 11:22:17;;;;;;;3.38;0.80;;;26.00;90.50;;;;;;5002663;28;20376;-80
2022/07/28 11:25:01;;;;;;;1.45;0.65;;;25.60;90.00;;;;;;5001088;28;20053;-80
2022/07/28 11:27:44;;;;;;;3.85;0.75;;;24.90;88.20;;;;;;5009491;28;20454;-80
2022/07/28 11:30:31;;;;;;;1.38;0.60;;;24.40;89.80;;;;;;4986563;28;20054;-80
2022/07/28 11:33:09;;;;;;;4.22;0.80;;;24.00;90.20;;;;;;5001631;28;20436;-80
2022/07/28 11:35:38;;;;;;;2.00;0.80;;;23.70;90.70;;;;;;4987819;28;20576;-80
2022/07/28 11:38:04;;;;;;;2.97;0.63;;;23.50;91.50;;;;;;4985971;28;20057;-80
2022/07/28 11:40:30;;;;;;;3.05;0.70;;;23.20;92.10;;;;;;4985575;28;20053;-79
2022/07/28 11:43:21;;;;;;;1.80;0.60;;;23.10;92.40;;;;;;4987848;28;20483;-80
2022/07/28 11:46:07;;;;;;;1.90;0.75;;;23.00;92.10;;;;;;5010093;28;20057;-80
2022/07/28 11:48:34;;;;;;;2.40;0.82;;;22.80;91.60;;;;;;5005307;28;20045;-80
2022/07/28 11:51:03;;;;;;;4.05;0.98;;;22.70;93.00;;;;;;4994513;28;20054;-79
2022/07/28 11:53:37;;;;;;;2.28;0.70;;;22.60;92.90;;;;;;4994713;28;20046;-79
2022/07/28 11:56:36;;;;;;;2.03;0.80;;;22.50;93.30;;;;;;5001609;28;20050;-80
2022/07/28 11:59:06;;;;;;;2.45;0.80;;;22.50;93.60;;;;;;5002131;28;20049;-80
2022/07/28 12:01:33;;;;;;;1.42;0.75;;;22.40;93.40;;;;;;5001564;28;20491;-79
2022/07/28 12:04:07;;;;;;;2.50;0.73;;;22.40;93.50;;;;;;5000823;28;20049;-79
2022/07/28 12:06:39;;;;;;;2.70;0.80;;;22.30;93.60;;;;;;5002287;28;20050;-79
2022/07/28 12:09:07;;;;;;;2.50;0.82;;;22.20;93.10;;;;;;5002522;28;20081;-79
2022/07/28 12:11:36;;;;;;;1.65;0.70;;;22.10;93.40;;;;;;5001864;28;20135;-81
2022/07/28 12:14:05;;;;;;;1.98;0.75;;;22.00;93.10;;;;;;4985493;28;20100;-80
2022/07/28 12:16:33;;;;;;;2.92;0.80;;;22.10;93.50;;;;;;5019563;28;20059;-81
2022/07/28 12:19:00;;;;;;;2.22;0.70;;;22.30;93.70;;;;;;5017191;28;20092;-80
2022/07/28 12:21:38;;;;;;;1.90;0.70;;;22.40;93.50;;;;;;4998600;28;20042;-80
2022/07/28 12:24:05;;;;;;;1.65;0.70;;;22.50;93.00;;;;;;5014593;28;20053;-80
2022/07/28 12:26:32;;;;;;;2.10;0.60;;;22.50;93.00;;;;;;4990697;28;20144;-81
2022/07/28 12:28:59;;;;;;;1.83;0.50;;;22.40;92.70;;;;;;4979956;28;20053;-80
2022/07/28 12:31:31;;;;;;;0.98;0.60;;;22.30;92.30;;;;;;4991132;28;20059;-80
2022/07/28 12:33:57;;;;;;;0.90;0.60;;;22.20;92.10;;;;;;5013259;28;20112;-80
2022/07/28 12:36:23;;;;;;;0.57;0.50;;;22.10;92.10;;;;;;4999236;28;20077;-80
2022/07/28 12:38:51;;;;;;;0.77;0.50;;;22.00;92.10;;;;;;4993334;28;20149;-80
2022/07/28 12:41:17;;;;;;;2.05;0.75;;;22.00;91.80;;;;;;5007925;28;20053;-80
2022/07/28 12:43:50;;;;;;;1.00;0.70;;;21.90;91.90;;;;;;5008970;28;20057;-80
2022/07/28 12:46:22;;;;;;;2.88;0.70;;;21.90;91.70;;;;;;4991259;28;20069;-79
2022/07/28 12:48:48;;;;;;;2.00;0.68;;;21.90;91.80;;;;;;5025270;28;20049;-80
2022/07/28 12:51:32;;;;;;;2.33;0.57;;;22.00;92.00;;;;;;5025716;28;20042;-80
2022/07/28 12:53:59;;;;;;;0.85;0.50;;;22.00;91.50;;;;;;4990152;28;20525;-80
2022/07/28 12:56:24;;;;;;;2.10;0.80;;;22.10;91.90;;;;;;5004956;28;20049;-80
2022/07/28 12:59:07;;;;;;;2.30;0.85;;;22.10;91.80;;;;;;4996053;28;20037;-79